Ainsworth, Nebraska
Current Conditions -  °F | °C
As of 6:55 PM on Sunday 23 Nov 2014 (Local Time) from KANW Reporting Station
Broken Clouds Broken Clouds  
Wind Chill: 24°   Ceiling: 4200
Heat Index: 35°   Visibility: 10mi
Dew Point: 26°   Wind: 18mph
Humidity: 70%   Direction: 320°NW
Pressure: 29.68"   Gusts: 24mph
Location:  42.55°N, 99.86°W
Report Text: KANW 240055Z AUTO 32016G21KT 10SM SCT028 SCT034 BKN042 02/M03 A2968 RMK AO2 T00151034
Loading
Personal Weather Stations






























Interactive Weather Map New forecast layout! Learn more

10-Day Weather Forecast

Advertisements
Track Severe Weather on mobile